sensor_id;sensor_type;location;lat;lon;timestamp;P1;durP1;ratioP1;P2;durP2;ratioP2
12861;SDS011;6499;66.348;14.134;2022-09-09T00:01:28;0.57;;;0.57;;
12861;SDS011;6499;66.348;14.134;2022-09-09T00:04:02;0.60;;;0.60;;
12861;SDS011;6499;66.348;14.134;2022-09-09T00:06:30;1.13;;;0.70;;
12861;SDS011;6499;66.348;14.134;2022-09-09T00:09:00;0.50;;;0.50;;
12861;SDS011;6499;66.348;14.134;2022-09-09T00:11:28;0.80;;;0.50;;
12861;SDS011;6499;66.348;14.134;2022-09-09T00:13:55;2.00;;;0.60;;
12861;SDS011;6499;66.348;14.134;2022-09-09T00:16:24;0.70;;;0.57;;
12861;SDS011;6499;66.348;14.134;2022-09-09T00:18:54;0.57;;;0.50;;
12861;SDS011;6499;66.348;14.134;2022-09-09T00:21:26;1.83;;;0.63;;
12861;SDS011;6499;66.348;14.134;2022-09-09T00:23:57;0.53;;;0.53;;
12861;SDS011;6499;66.348;14.134;2022-09-09T00:26:26;1.00;;;0.70;;
12861;SDS011;6499;66.348;14.134;2022-09-09T00:28:57;0.80;;;0.60;;
12861;SDS011;6499;66.348;14.134;2022-09-09T00:31:26;0.40;;;0.40;;
12861;SDS011;6499;66.348;14.134;2022-09-09T00:33:54;0.83;;;0.50;;
12861;SDS011;6499;66.348;14.134;2022-09-09T00:36:22;0.90;;;0.70;;
12861;SDS011;6499;66.348;14.134;2022-09-09T00:38:52;1.17;;;0.60;;
12861;SDS011;6499;66.348;14.134;2022-09-09T00:41:22;1.00;;;0.60;;
12861;SDS011;6499;66.348;14.134;2022-09-09T00:43:54;1.27;;;0.50;;
12861;SDS011;6499;66.348;14.134;2022-09-09T00:49:07;0.80;;;0.57;;
12861;SDS011;6499;66.348;14.134;2022-09-09T00:51:38;0.70;;;0.70;;
12861;SDS011;6499;66.348;14.134;2022-09-09T00:54:14;1.37;;;0.67;;
12861;SDS011;6499;66.348;14.134;2022-09-09T00:56:44;1.17;;;0.80;;
12861;SDS011;6499;66.348;14.134;2022-09-09T00:59:15;0.70;;;0.60;;
12861;SDS011;6499;66.348;14.134;2022-09-09T01:01:48;0.60;;;0.60;;
12861;SDS011;6499;66.348;14.134;2022-09-09T01:04:16;1.77;;;1.00;;
12861;SDS011;6499;66.348;14.134;2022-09-09T01:06:45;0.60;;;0.60;;
12861;SDS011;6499;66.348;14.134;2022-09-09T01:09:21;0.60;;;0.60;;
12861;SDS011;6499;66.348;14.134;2022-09-09T01:11:55;0.60;;;0.60;;
12861;SDS011;6499;66.348;14.134;2022-09-09T01:14:37;2.10;;;0.70;;
12861;SDS011;6499;66.348;14.134;2022-09-09T01:17:07;2.20;;;0.77;;
12861;SDS011;6499;66.348;14.134;2022-09-09T01:19:38;1.77;;;0.70;;
12861;SDS011;6499;66.348;14.134;2022-09-09T01:22:09;1.30;;;0.60;;
12861;SDS011;6499;66.348;14.134;2022-09-09T01:24:40;0.50;;;0.50;;
12861;SDS011;6499;66.348;14.134;2022-09-09T01:27:11;1.83;;;0.70;;
12861;SDS011;6499;66.348;14.134;2022-09-09T01:29:38;1.37;;;0.50;;
12861;SDS011;6499;66.348;14.134;2022-09-09T01:34:49;0.60;;;0.60;;
12861;SDS011;6499;66.348;14.134;2022-09-09T01:37:16;0.93;;;0.80;;
12861;SDS011;6499;66.348;14.134;2022-09-09T01:39:43;0.63;;;0.60;;
12861;SDS011;6499;66.348;14.134;2022-09-09T01:42:13;0.60;;;0.50;;
12861;SDS011;6499;66.348;14.134;2022-09-09T01:44:40;0.70;;;0.67;;
12861;SDS011;6499;66.348;14.134;2022-09-09T01:47:06;0.47;;;0.47;;
12861;SDS011;6499;66.348;14.134;2022-09-09T01:49:33;0.60;;;0.60;;
12861;SDS011;6499;66.348;14.134;2022-09-09T01:52:00;0.53;;;0.50;;
12861;SDS011;6499;66.348;14.134;2022-09-09T01:57:33;0.60;;;0.60;;
12861;SDS011;6499;66.348;14.134;2022-09-09T02:03:08;1.37;;;0.70;;
12861;SDS011;6499;66.348;14.134;2022-09-09T02:05:39;1.07;;;0.60;;
12861;SDS011;6499;66.348;14.134;2022-09-09T02:08:06;1.03;;;0.70;;
12861;SDS011;6499;66.348;14.134;2022-09-09T02:10:35;0.60;;;0.60;;
12861;SDS011;6499;66.348;14.134;2022-09-09T02:13:07;0.60;;;0.50;;
12861;SDS011;6499;66.348;14.134;2022-09-09T02:15:37;1.90;;;0.70;;
12861;SDS011;6499;66.348;14.134;2022-09-09T02:18:06;0.50;;;0.50;;
12861;SDS011;6499;66.348;14.134;2022-09-09T02:20:34;1.03;;;0.50;;
12861;SDS011;6499;66.348;14.134;2022-09-09T02:23:03;0.97;;;0.50;;
12861;SDS011;6499;66.348;14.134;2022-09-09T02:25:30;0.60;;;0.60;;
12861;SDS011;6499;66.348;14.134;2022-09-09T02:27:57;0.60;;;0.60;;
12861;SDS011;6499;66.348;14.134;2022-09-09T02:30:25;0.57;;;0.40;;
12861;SDS011;6499;66.348;14.134;2022-09-09T02:32:54;1.13;;;0.70;;
12861;SDS011;6499;66.348;14.134;2022-09-09T02:35:23;0.60;;;0.50;;
12861;SDS011;6499;66.348;14.134;2022-09-09T02:37:51;1.47;;;0.70;;
12861;SDS011;6499;66.348;14.134;2022-09-09T02:40:19;0.70;;;0.70;;
12861;SDS011;6499;66.348;14.134;2022-09-09T02:42:47;0.77;;;0.60;;
12861;SDS011;6499;66.348;14.134;2022-09-09T02:45:14;0.70;;;0.57;;
12861;SDS011;6499;66.348;14.134;2022-09-09T02:47:43;0.60;;;0.57;;
12861;SDS011;6499;66.348;14.134;2022-09-09T02:50:14;0.80;;;0.60;;
12861;SDS011;6499;66.348;14.134;2022-09-09T02:52:51;0.50;;;0.50;;
12861;SDS011;6499;66.348;14.134;2022-09-09T02:58:22;1.40;;;0.60;;
12861;SDS011;6499;66.348;14.134;2022-09-09T03:03:53;1.47;;;0.60;;
12861;SDS011;6499;66.348;14.134;2022-09-09T03:06:20;0.70;;;0.70;;
12861;SDS011;6499;66.348;14.134;2022-09-09T03:08:46;0.60;;;0.60;;
12861;SDS011;6499;66.348;14.134;2022-09-09T03:11:14;0.50;;;0.50;;
12861;SDS011;6499;66.348;14.134;2022-09-09T03:13:41;0.60;;;0.60;;
12861;SDS011;6499;66.348;14.134;2022-09-09T03:16:08;0.80;;;0.60;;
12861;SDS011;6499;66.348;14.134;2022-09-09T03:18:34;1.07;;;0.80;;
12861;SDS011;6499;66.348;14.134;2022-09-09T03:21:02;0.87;;;0.53;;
12861;SDS011;6499;66.348;14.134;2022-09-09T03:23:29;0.67;;;0.67;;
12861;SDS011;6499;66.348;14.134;2022-09-09T03:25:55;2.00;;;0.70;;
12861;SDS011;6499;66.348;14.134;2022-09-09T03:28:23;0.83;;;0.50;;
12861;SDS011;6499;66.348;14.134;2022-09-09T03:30:57;0.90;;;0.70;;
12861;SDS011;6499;66.348;14.134;2022-09-09T03:33:24;0.63;;;0.60;;
12861;SDS011;6499;66.348;14.134;2022-09-09T03:35:51;0.50;;;0.50;;
12861;SDS011;6499;66.348;14.134;2022-09-09T03:38:19;0.70;;;0.70;;
12861;SDS011;6499;66.348;14.134;2022-09-09T03:40:49;0.63;;;0.60;;
12861;SDS011;6499;66.348;14.134;2022-09-09T03:43:16;1.40;;;0.70;;
12861;SDS011;6499;66.348;14.134;2022-09-09T03:45:44;1.30;;;0.60;;
12861;SDS011;6499;66.348;14.134;2022-09-09T03:48:12;1.93;;;0.70;;
12861;SDS011;6499;66.348;14.134;2022-09-09T03:50:38;0.50;;;0.50;;
12861;SDS011;6499;66.348;14.134;2022-09-09T03:53:05;0.70;;;0.70;;
12861;SDS011;6499;66.348;14.134;2022-09-09T03:55:33;0.57;;;0.57;;
12861;SDS011;6499;66.348;14.134;2022-09-09T03:58:00;1.33;;;0.60;;
12861;SDS011;6499;66.348;14.134;2022-09-09T04:00:26;0.70;;;0.60;;
12861;SDS011;6499;66.348;14.134;2022-09-09T04:02:54;0.67;;;0.67;;
12861;SDS011;6499;66.348;14.134;2022-09-09T04:05:22;1.03;;;0.50;;
12861;SDS011;6499;66.348;14.134;2022-09-09T04:07:49;0.60;;;0.60;;
12861;SDS011;6499;66.348;14.134;2022-09-09T04:10:16;0.60;;;0.60;;
12861;SDS011;6499;66.348;14.134;2022-09-09T04:12:44;0.60;;;0.60;;
12861;SDS011;6499;66.348;14.134;2022-09-09T04:15:11;1.33;;;0.63;;
12861;SDS011;6499;66.348;14.134;2022-09-09T04:17:37;4.20;;;0.90;;
12861;SDS011;6499;66.348;14.134;2022-09-09T04:20:04;0.67;;;0.50;;
12861;SDS011;6499;66.348;14.134;2022-09-09T04:22:32;0.80;;;0.70;;
12861;SDS011;6499;66.348;14.134;2022-09-09T04:24:59;1.37;;;0.60;;
12861;SDS011;6499;66.348;14.134;2022-09-09T04:27:25;0.70;;;0.53;;
12861;SDS011;6499;66.348;14.134;2022-09-09T04:29:53;0.70;;;0.60;;
12861;SDS011;6499;66.348;14.134;2022-09-09T04:32:21;0.67;;;0.63;;
12861;SDS011;6499;66.348;14.134;2022-09-09T04:34:48;0.50;;;0.50;;
12861;SDS011;6499;66.348;14.134;2022-09-09T04:37:15;0.70;;;0.70;;
12861;SDS011;6499;66.348;14.134;2022-09-09T04:39:41;1.00;;;0.80;;
12861;SDS011;6499;66.348;14.134;2022-09-09T04:42:08;2.83;;;0.70;;
12861;SDS011;6499;66.348;14.134;2022-09-09T04:44:34;0.50;;;0.50;;
12861;SDS011;6499;66.348;14.134;2022-09-09T04:47:03;0.80;;;0.80;;
12861;SDS011;6499;66.348;14.134;2022-09-09T04:49:29;2.20;;;0.70;;
12861;SDS011;6499;66.348;14.134;2022-09-09T04:51:56;1.67;;;0.80;;
12861;SDS011;6499;66.348;14.134;2022-09-09T04:54:23;0.60;;;0.60;;
12861;SDS011;6499;66.348;14.134;2022-09-09T04:56:50;0.93;;;0.60;;
12861;SDS011;6499;66.348;14.134;2022-09-09T04:59:17;0.87;;;0.60;;
12861;SDS011;6499;66.348;14.134;2022-09-09T05:01:43;4.63;;;0.90;;
12861;SDS011;6499;66.348;14.134;2022-09-09T05:04:12;1.13;;;0.80;;
12861;SDS011;6499;66.348;14.134;2022-09-09T05:06:39;2.57;;;0.80;;
12861;SDS011;6499;66.348;14.134;2022-09-09T05:09:06;1.80;;;0.80;;
12861;SDS011;6499;66.348;14.134;2022-09-09T05:11:33;3.63;;;0.83;;
12861;SDS011;6499;66.348;14.134;2022-09-09T05:14:01;1.37;;;0.87;;
12861;SDS011;6499;66.348;14.134;2022-09-09T05:16:28;3.90;;;0.90;;
12861;SDS011;6499;66.348;14.134;2022-09-09T05:18:55;2.93;;;1.10;;
12861;SDS011;6499;66.348;14.134;2022-09-09T05:21:23;1.77;;;0.90;;
12861;SDS011;6499;66.348;14.134;2022-09-09T05:23:51;1.13;;;0.80;;
12861;SDS011;6499;66.348;14.134;2022-09-09T05:26:18;0.73;;;0.70;;
12861;SDS011;6499;66.348;14.134;2022-09-09T05:28:45;1.60;;;0.87;;
12861;SDS011;6499;66.348;14.134;2022-09-09T05:31:12;2.53;;;1.00;;
12861;SDS011;6499;66.348;14.134;2022-09-09T05:33:39;2.00;;;0.80;;
12861;SDS011;6499;66.348;14.134;2022-09-09T05:36:07;2.33;;;0.90;;
12861;SDS011;6499;66.348;14.134;2022-09-09T05:38:35;1.43;;;0.70;;
12861;SDS011;6499;66.348;14.134;2022-09-09T05:41:03;1.50;;;0.90;;
12861;SDS011;6499;66.348;14.134;2022-09-09T05:43:29;1.33;;;0.90;;
12861;SDS011;6499;66.348;14.134;2022-09-09T05:46:01;1.90;;;0.90;;
12861;SDS011;6499;66.348;14.134;2022-09-09T05:48:29;0.70;;;0.70;;
12861;SDS011;6499;66.348;14.134;2022-09-09T05:50:57;0.60;;;0.60;;
12861;SDS011;6499;66.348;14.134;2022-09-09T05:53:23;0.80;;;0.80;;
12861;SDS011;6499;66.348;14.134;2022-09-09T05:55:57;0.80;;;0.70;;
12861;SDS011;6499;66.348;14.134;2022-09-09T05:58:23;1.37;;;0.70;;
12861;SDS011;6499;66.348;14.134;2022-09-09T06:00:50;1.07;;;0.67;;
12861;SDS011;6499;66.348;14.134;2022-09-09T06:03:16;1.00;;;0.70;;
12861;SDS011;6499;66.348;14.134;2022-09-09T06:05:43;1.97;;;0.80;;
12861;SDS011;6499;66.348;14.134;2022-09-09T06:08:10;0.80;;;0.70;;
12861;SDS011;6499;66.348;14.134;2022-09-09T06:10:36;2.80;;;0.90;;
12861;SDS011;6499;66.348;14.134;2022-09-09T06:13:04;0.70;;;0.70;;
12861;SDS011;6499;66.348;14.134;2022-09-09T06:15:31;1.90;;;0.90;;
12861;SDS011;6499;66.348;14.134;2022-09-09T06:17:57;0.57;;;0.57;;
12861;SDS011;6499;66.348;14.134;2022-09-09T06:20:24;1.10;;;0.73;;
12861;SDS011;6499;66.348;14.134;2022-09-09T06:22:50;0.70;;;0.70;;
12861;SDS011;6499;66.348;14.134;2022-09-09T06:25:17;2.20;;;1.03;;
12861;SDS011;6499;66.348;14.134;2022-09-09T06:27:47;0.60;;;0.60;;
12861;SDS011;6499;66.348;14.134;2022-09-09T06:30:18;0.80;;;0.60;;
12861;SDS011;6499;66.348;14.134;2022-09-09T06:32:45;0.87;;;0.60;;
12861;SDS011;6499;66.348;14.134;2022-09-09T06:35:11;1.10;;;0.70;;
12861;SDS011;6499;66.348;14.134;2022-09-09T06:37:38;0.83;;;0.67;;
12861;SDS011;6499;66.348;14.134;2022-09-09T06:40:05;0.83;;;0.70;;
12861;SDS011;6499;66.348;14.134;2022-09-09T06:42:34;1.83;;;1.00;;
12861;SDS011;6499;66.348;14.134;2022-09-09T06:45:01;1.37;;;0.80;;
12861;SDS011;6499;66.348;14.134;2022-09-09T06:47:31;0.80;;;0.80;;
12861;SDS011;6499;66.348;14.134;2022-09-09T06:49:58;0.87;;;0.60;;
12861;SDS011;6499;66.348;14.134;2022-09-09T06:52:25;0.60;;;0.60;;
12861;SDS011;6499;66.348;14.134;2022-09-09T06:54:51;0.60;;;0.60;;
12861;SDS011;6499;66.348;14.134;2022-09-09T06:57:18;0.60;;;0.60;;
12861;SDS011;6499;66.348;14.134;2022-09-09T06:59:44;0.93;;;0.60;;
12861;SDS011;6499;66.348;14.134;2022-09-09T07:02:11;0.60;;;0.60;;
12861;SDS011;6499;66.348;14.134;2022-09-09T07:04:39;1.73;;;0.60;;
12861;SDS011;6499;66.348;14.134;2022-09-09T07:07:05;1.20;;;0.77;;
12861;SDS011;6499;66.348;14.134;2022-09-09T07:09:32;0.50;;;0.50;;
12861;SDS011;6499;66.348;14.134;2022-09-09T07:11:59;0.60;;;0.60;;
12861;SDS011;6499;66.348;14.134;2022-09-09T07:14:26;0.60;;;0.57;;
12861;SDS011;6499;66.348;14.134;2022-09-09T07:16:52;1.00;;;0.77;;
12861;SDS011;6499;66.348;14.134;2022-09-09T07:19:19;0.50;;;0.50;;
12861;SDS011;6499;66.348;14.134;2022-09-09T07:21:47;0.80;;;0.80;;
12861;SDS011;6499;66.348;14.134;2022-09-09T07:24:14;1.53;;;1.00;;
12861;SDS011;6499;66.348;14.134;2022-09-09T07:26:41;0.77;;;0.60;;
12861;SDS011;6499;66.348;14.134;2022-09-09T07:29:07;1.93;;;0.60;;
12861;SDS011;6499;66.348;14.134;2022-09-09T07:31:35;2.60;;;1.00;;
12861;SDS011;6499;66.348;14.134;2022-09-09T07:34:02;0.80;;;0.80;;
12861;SDS011;6499;66.348;14.134;2022-09-09T07:36:30;0.60;;;0.60;;
12861;SDS011;6499;66.348;14.134;2022-09-09T07:38:59;0.60;;;0.60;;
12861;SDS011;6499;66.348;14.134;2022-09-09T07:41:28;1.13;;;0.70;;
12861;SDS011;6499;66.348;14.134;2022-09-09T07:43:55;0.80;;;0.70;;
12861;SDS011;6499;66.348;14.134;2022-09-09T07:46:22;0.60;;;0.60;;
12861;SDS011;6499;66.348;14.134;2022-09-09T07:48:50;0.83;;;0.70;;
12861;SDS011;6499;66.348;14.134;2022-09-09T07:51:18;0.90;;;0.63;;
12861;SDS011;6499;66.348;14.134;2022-09-09T07:53:44;1.03;;;0.70;;
12861;SDS011;6499;66.348;14.134;2022-09-09T07:56:14;1.07;;;0.70;;
12861;SDS011;6499;66.348;14.134;2022-09-09T07:58:42;1.17;;;0.60;;
12861;SDS011;6499;66.348;14.134;2022-09-09T08:01:12;1.07;;;0.70;;
12861;SDS011;6499;66.348;14.134;2022-09-09T08:03:39;0.80;;;0.60;;
12861;SDS011;6499;66.348;14.134;2022-09-09T08:06:06;0.53;;;0.53;;
12861;SDS011;6499;66.348;14.134;2022-09-09T08:08:34;0.77;;;0.73;;
12861;SDS011;6499;66.348;14.134;2022-09-09T08:11:01;0.70;;;0.70;;
12861;SDS011;6499;66.348;14.134;2022-09-09T08:13:30;0.60;;;0.60;;
12861;SDS011;6499;66.348;14.134;2022-09-09T08:16:03;5.53;;;0.80;;
12861;SDS011;6499;66.348;14.134;2022-09-09T08:18:29;0.50;;;0.50;;
12861;SDS011;6499;66.348;14.134;2022-09-09T08:20:56;0.70;;;0.70;;
12861;SDS011;6499;66.348;14.134;2022-09-09T08:23:23;0.60;;;0.60;;
12861;SDS011;6499;66.348;14.134;2022-09-09T08:25:51;1.77;;;0.70;;
12861;SDS011;6499;66.348;14.134;2022-09-09T08:28:17;2.50;;;0.87;;
12861;SDS011;6499;66.348;14.134;2022-09-09T08:30:45;1.53;;;0.70;;
12861;SDS011;6499;66.348;14.134;2022-09-09T08:33:13;1.43;;;0.60;;
12861;SDS011;6499;66.348;14.134;2022-09-09T08:35:39;1.30;;;0.60;;
12861;SDS011;6499;66.348;14.134;2022-09-09T08:38:15;1.67;;;0.73;;
12861;SDS011;6499;66.348;14.134;2022-09-09T08:40:43;1.43;;;0.70;;
12861;SDS011;6499;66.348;14.134;2022-09-09T08:43:14;2.27;;;0.60;;
12861;SDS011;6499;66.348;14.134;2022-09-09T08:45:44;3.33;;;0.83;;
12861;SDS011;6499;66.348;14.134;2022-09-09T08:48:19;2.30;;;0.70;;
12861;SDS011;6499;66.348;14.134;2022-09-09T08:50:50;2.00;;;0.73;;
12861;SDS011;6499;66.348;14.134;2022-09-09T08:53:18;1.00;;;0.73;;
12861;SDS011;6499;66.348;14.134;2022-09-09T08:55:47;2.27;;;0.60;;
12861;SDS011;6499;66.348;14.134;2022-09-09T08:58:15;1.10;;;0.60;;
12861;SDS011;6499;66.348;14.134;2022-09-09T09:00:46;3.23;;;0.70;;
12861;SDS011;6499;66.348;14.134;2022-09-09T09:03:22;1.03;;;0.70;;
12861;SDS011;6499;66.348;14.134;2022-09-09T09:05:53;1.47;;;0.60;;
12861;SDS011;6499;66.348;14.134;2022-09-09T09:08:26;0.70;;;0.60;;
12861;SDS011;6499;66.348;14.134;2022-09-09T09:10:56;0.53;;;0.53;;
12861;SDS011;6499;66.348;14.134;2022-09-09T09:13:27;3.03;;;0.60;;
12861;SDS011;6499;66.348;14.134;2022-09-09T09:15:58;0.70;;;0.50;;
12861;SDS011;6499;66.348;14.134;2022-09-09T09:18:27;0.50;;;0.50;;
12861;SDS011;6499;66.348;14.134;2022-09-09T09:20:55;1.30;;;0.50;;
12861;SDS011;6499;66.348;14.134;2022-09-09T09:23:25;0.87;;;0.60;;
12861;SDS011;6499;66.348;14.134;2022-09-09T09:25:52;2.50;;;0.70;;
12861;SDS011;6499;66.348;14.134;2022-09-09T09:28:23;1.20;;;0.50;;
12861;SDS011;6499;66.348;14.134;2022-09-09T09:30:51;0.70;;;0.70;;
12861;SDS011;6499;66.348;14.134;2022-09-09T09:33:20;1.13;;;0.70;;
12861;SDS011;6499;66.348;14.134;2022-09-09T09:35:50;0.63;;;0.53;;
12861;SDS011;6499;66.348;14.134;2022-09-09T09:38:17;0.57;;;0.50;;
12861;SDS011;6499;66.348;14.134;2022-09-09T09:40:48;1.60;;;0.60;;
12861;SDS011;6499;66.348;14.134;2022-09-09T09:43:18;0.80;;;0.70;;
12861;SDS011;6499;66.348;14.134;2022-09-09T09:45:45;0.97;;;0.80;;
12861;SDS011;6499;66.348;14.134;2022-09-09T09:48:13;0.50;;;0.50;;
12861;SDS011;6499;66.348;14.134;2022-09-09T09:50:46;0.90;;;0.73;;
12861;SDS011;6499;66.348;14.134;2022-09-09T09:53:18;1.23;;;0.70;;
12861;SDS011;6499;66.348;14.134;2022-09-09T09:55:47;0.40;;;0.40;;
12861;SDS011;6499;66.348;14.134;2022-09-09T09:58:16;1.20;;;0.70;;
12861;SDS011;6499;66.348;14.134;2022-09-09T10:00:47;0.60;;;0.60;;
12861;SDS011;6499;66.348;14.134;2022-09-09T10:03:18;0.87;;;0.70;;
12861;SDS011;6499;66.348;14.134;2022-09-09T10:05:46;1.03;;;0.60;;
12861;SDS011;6499;66.348;14.134;2022-09-09T10:08:13;0.50;;;0.50;;
12861;SDS011;6499;66.348;14.134;2022-09-09T10:10:49;2.03;;;0.60;;
12861;SDS011;6499;66.348;14.134;2022-09-09T10:13:18;0.80;;;0.70;;
12861;SDS011;6499;66.348;14.134;2022-09-09T10:15:50;0.70;;;0.70;;
12861;SDS011;6499;66.348;14.134;2022-09-09T10:18:25;1.10;;;0.60;;
12861;SDS011;6499;66.348;14.134;2022-09-09T10:21:02;0.50;;;0.50;;
12861;SDS011;6499;66.348;14.134;2022-09-09T10:23:35;0.80;;;0.70;;
12861;SDS011;6499;66.348;14.134;2022-09-09T10:26:16;1.10;;;0.60;;
12861;SDS011;6499;66.348;14.134;2022-09-09T10:28:54;1.07;;;0.63;;
12861;SDS011;6499;66.348;14.134;2022-09-09T10:31:25;0.50;;;0.50;;
12861;SDS011;6499;66.348;14.134;2022-09-09T10:33:56;1.67;;;0.70;;
12861;SDS011;6499;66.348;14.134;2022-09-09T10:36:25;0.67;;;0.67;;
12861;SDS011;6499;66.348;14.134;2022-09-09T10:38:53;0.60;;;0.60;;
12861;SDS011;6499;66.348;14.134;2022-09-09T10:41:26;0.57;;;0.50;;
12861;SDS011;6499;66.348;14.134;2022-09-09T10:44:10;1.13;;;0.50;;
12861;SDS011;6499;66.348;14.134;2022-09-09T10:46:43;0.90;;;0.73;;
12861;SDS011;6499;66.348;14.134;2022-09-09T10:49:18;0.80;;;0.60;;
12861;SDS011;6499;66.348;14.134;2022-09-09T10:51:47;1.77;;;0.70;;
12861;SDS011;6499;66.348;14.134;2022-09-09T10:54:24;0.63;;;0.50;;
12861;SDS011;6499;66.348;14.134;2022-09-09T10:56:58;1.10;;;0.80;;
12861;SDS011;6499;66.348;14.134;2022-09-09T10:59:26;3.27;;;1.03;;
12861;SDS011;6499;66.348;14.134;2022-09-09T11:01:54;1.27;;;0.90;;
12861;SDS011;6499;66.348;14.134;2022-09-09T11:04:23;0.80;;;0.80;;
12861;SDS011;6499;66.348;14.134;2022-09-09T11:06:53;1.90;;;0.90;;
12861;SDS011;6499;66.348;14.134;2022-09-09T11:09:22;2.57;;;1.00;;
12861;SDS011;6499;66.348;14.134;2022-09-09T11:11:50;1.20;;;1.10;;
12861;SDS011;6499;66.348;14.134;2022-09-09T11:14:21;2.10;;;1.13;;
12861;SDS011;6499;66.348;14.134;2022-09-09T11:16:56;1.80;;;1.00;;
12861;SDS011;6499;66.348;14.134;2022-09-09T11:19:24;2.10;;;0.97;;
12861;SDS011;6499;66.348;14.134;2022-09-09T11:21:53;1.73;;;1.10;;
12861;SDS011;6499;66.348;14.134;2022-09-09T11:24:20;2.93;;;1.20;;
12861;SDS011;6499;66.348;14.134;2022-09-09T11:26:49;1.70;;;1.20;;
12861;SDS011;6499;66.348;14.134;2022-09-09T11:29:24;2.87;;;1.43;;
12861;SDS011;6499;66.348;14.134;2022-09-09T11:31:56;2.37;;;1.43;;
12861;SDS011;6499;66.348;14.134;2022-09-09T11:34:30;3.70;;;2.10;;
12861;SDS011;6499;66.348;14.134;2022-09-09T11:37:15;5.87;;;2.33;;
12861;SDS011;6499;66.348;14.134;2022-09-09T11:39:50;3.80;;;2.10;;
12861;SDS011;6499;66.348;14.134;2022-09-09T11:42:20;5.23;;;2.10;;
12861;SDS011;6499;66.348;14.134;2022-09-09T11:44:49;4.80;;;2.20;;
12861;SDS011;6499;66.348;14.134;2022-09-09T11:47:18;5.07;;;2.30;;
12861;SDS011;6499;66.348;14.134;2022-09-09T11:49:45;3.67;;;1.97;;
12861;SDS011;6499;66.348;14.134;2022-09-09T11:52:12;3.70;;;1.80;;
12861;SDS011;6499;66.348;14.134;2022-09-09T11:54:44;6.43;;;2.60;;
12861;SDS011;6499;66.348;14.134;2022-09-09T11:57:16;6.20;;;3.43;;
12861;SDS011;6499;66.348;14.134;2022-09-09T11:59:51;4.00;;;2.40;;
12861;SDS011;6499;66.348;14.134;2022-09-09T12:08:27;4.10;;;3.40;;
12861;SDS011;6499;66.348;14.134;2022-09-09T12:10:55;4.73;;;2.73;;
12861;SDS011;6499;66.348;14.134;2022-09-09T12:13:23;3.43;;;2.00;;
12861;SDS011;6499;66.348;14.134;2022-09-09T12:15:52;2.40;;;1.70;;
12861;SDS011;6499;66.348;14.134;2022-09-09T12:18:21;2.43;;;1.97;;
12861;SDS011;6499;66.348;14.134;2022-09-09T12:20:52;2.10;;;1.43;;
12861;SDS011;6499;66.348;14.134;2022-09-09T12:23:24;1.60;;;1.50;;
12861;SDS011;6499;66.348;14.134;2022-09-09T12:26:03;2.10;;;1.33;;
12861;SDS011;6499;66.348;14.134;2022-09-09T12:31:51;1.97;;;1.13;;
12861;SDS011;6499;66.348;14.134;2022-09-09T12:34:30;0.90;;;0.80;;
12861;SDS011;6499;66.348;14.134;2022-09-09T12:37:18;1.00;;;0.90;;
12861;SDS011;6499;66.348;14.134;2022-09-09T12:40:03;1.20;;;0.83;;
12861;SDS011;6499;66.348;14.134;2022-09-09T12:42:46;1.23;;;1.00;;
12861;SDS011;6499;66.348;14.134;2022-09-09T12:45:16;1.67;;;1.00;;
12861;SDS011;6499;66.348;14.134;2022-09-09T12:47:46;0.90;;;0.90;;
12861;SDS011;6499;66.348;14.134;2022-09-09T12:50:17;0.90;;;0.90;;
12861;SDS011;6499;66.348;14.134;2022-09-09T12:52:45;1.23;;;1.13;;
12861;SDS011;6499;66.348;14.134;2022-09-09T12:55:16;1.07;;;0.90;;
12861;SDS011;6499;66.348;14.134;2022-09-09T12:57:44;1.30;;;0.80;;
12861;SDS011;6499;66.348;14.134;2022-09-09T13:00:13;1.23;;;0.70;;
12861;SDS011;6499;66.348;14.134;2022-09-09T13:27:03;0.77;;;0.70;;
12861;SDS011;6499;66.348;14.134;2022-09-09T13:29:30;0.60;;;0.60;;
12861;SDS011;6499;66.348;14.134;2022-09-09T13:32:03;0.70;;;0.70;;
12861;SDS011;6499;66.348;14.134;2022-09-09T13:34:31;1.13;;;0.80;;
12861;SDS011;6499;66.348;14.134;2022-09-09T13:52:33;0.60;;;0.60;;
12861;SDS011;6499;66.348;14.134;2022-09-09T13:55:14;0.77;;;0.70;;
12861;SDS011;6499;66.348;14.134;2022-09-09T13:57:49;0.63;;;0.60;;
12861;SDS011;6499;66.348;14.134;2022-09-09T14:00:16;0.73;;;0.73;;
12861;SDS011;6499;66.348;14.134;2022-09-09T14:02:43;0.70;;;0.70;;
12861;SDS011;6499;66.348;14.134;2022-09-09T14:05:10;0.67;;;0.67;;
12861;SDS011;6499;66.348;14.134;2022-09-09T14:07:39;0.93;;;0.67;;
12861;SDS011;6499;66.348;14.134;2022-09-09T14:10:07;0.80;;;0.80;;
12861;SDS011;6499;66.348;14.134;2022-09-09T14:12:34;16.43;;;1.47;;
12861;SDS011;6499;66.348;14.134;2022-09-09T14:15:01;0.90;;;0.70;;
12861;SDS011;6499;66.348;14.134;2022-09-09T14:17:28;0.80;;;0.80;;
12861;SDS011;6499;66.348;14.134;2022-09-09T14:19:56;0.70;;;0.70;;
12861;SDS011;6499;66.348;14.134;2022-09-09T14:22:22;0.70;;;0.70;;
12861;SDS011;6499;66.348;14.134;2022-09-09T14:24:51;0.70;;;0.70;;
12861;SDS011;6499;66.348;14.134;2022-09-09T14:27:18;0.63;;;0.63;;
12861;SDS011;6499;66.348;14.134;2022-09-09T14:29:45;0.70;;;0.67;;
12861;SDS011;6499;66.348;14.134;2022-09-09T14:32:11;0.70;;;0.70;;
12861;SDS011;6499;66.348;14.134;2022-09-09T14:34:38;0.80;;;0.80;;
12861;SDS011;6499;66.348;14.134;2022-09-09T14:37:05;0.73;;;0.70;;
12861;SDS011;6499;66.348;14.134;2022-09-09T14:39:32;0.60;;;0.60;;
12861;SDS011;6499;66.348;14.134;2022-09-09T14:42:00;0.83;;;0.70;;
12861;SDS011;6499;66.348;14.134;2022-09-09T14:44:27;0.70;;;0.70;;
12861;SDS011;6499;66.348;14.134;2022-09-09T14:46:54;0.77;;;0.73;;
12861;SDS011;6499;66.348;14.134;2022-09-09T14:49:21;0.97;;;0.83;;
12861;SDS011;6499;66.348;14.134;2022-09-09T14:51:47;0.70;;;0.70;;
12861;SDS011;6499;66.348;14.134;2022-09-09T14:54:14;0.70;;;0.70;;
12861;SDS011;6499;66.348;14.134;2022-09-09T14:56:41;0.87;;;0.87;;
12861;SDS011;6499;66.348;14.134;2022-09-09T14:59:09;1.43;;;0.80;;
12861;SDS011;6499;66.348;14.134;2022-09-09T15:01:36;1.80;;;0.70;;
12861;SDS011;6499;66.348;14.134;2022-09-09T15:04:03;0.83;;;0.83;;
12861;SDS011;6499;66.348;14.134;2022-09-09T15:06:31;0.80;;;0.80;;
12861;SDS011;6499;66.348;14.134;2022-09-09T15:08:59;0.93;;;0.80;;
12861;SDS011;6499;66.348;14.134;2022-09-09T15:11:26;1.37;;;0.90;;
12861;SDS011;6499;66.348;14.134;2022-09-09T15:13:53;0.90;;;0.70;;
12861;SDS011;6499;66.348;14.134;2022-09-09T15:16:23;0.70;;;0.70;;
12861;SDS011;6499;66.348;14.134;2022-09-09T15:18:50;1.00;;;0.73;;
12861;SDS011;6499;66.348;14.134;2022-09-09T15:21:18;1.17;;;0.80;;
12861;SDS011;6499;66.348;14.134;2022-09-09T15:23:46;0.83;;;0.83;;
12861;SDS011;6499;66.348;14.134;2022-09-09T15:26:13;1.03;;;0.93;;
12861;SDS011;6499;66.348;14.134;2022-09-09T15:28:40;1.00;;;0.90;;
12861;SDS011;6499;66.348;14.134;2022-09-09T15:31:09;0.83;;;0.73;;
12861;SDS011;6499;66.348;14.134;2022-09-09T15:33:38;1.23;;;0.80;;
12861;SDS011;6499;66.348;14.134;2022-09-09T15:36:14;1.63;;;0.67;;
12861;SDS011;6499;66.348;14.134;2022-09-09T15:38:41;0.70;;;0.70;;
12861;SDS011;6499;66.348;14.134;2022-09-09T15:41:09;0.73;;;0.70;;
12861;SDS011;6499;66.348;14.134;2022-09-09T15:43:35;1.00;;;0.90;;
12861;SDS011;6499;66.348;14.134;2022-09-09T15:46:05;0.90;;;0.80;;
12861;SDS011;6499;66.348;14.134;2022-09-09T15:48:34;0.70;;;0.70;;
12861;SDS011;6499;66.348;14.134;2022-09-09T15:51:03;0.60;;;0.60;;
12861;SDS011;6499;66.348;14.134;2022-09-09T15:53:30;1.30;;;0.90;;
12861;SDS011;6499;66.348;14.134;2022-09-09T15:55:57;0.70;;;0.70;;
12861;SDS011;6499;66.348;14.134;2022-09-09T15:58:24;0.80;;;0.80;;
12861;SDS011;6499;66.348;14.134;2022-09-09T16:00:50;1.87;;;0.73;;
12861;SDS011;6499;66.348;14.134;2022-09-09T16:03:18;2.47;;;0.77;;
12861;SDS011;6499;66.348;14.134;2022-09-09T16:05:44;1.17;;;0.70;;